createdAt,value
2019-05-21T00:02:02.547Z,94774.94
2019-05-21T00:04:38.000Z,94771.20
2019-05-21T00:07:09.516Z,94767.52
2019-05-21T00:09:43.922Z,94771.56
2019-05-21T00:12:15.141Z,94771.61
2019-05-21T00:14:47.938Z,94772.72
2019-05-21T00:17:21.316Z,94775.95
2019-05-21T00:19:53.545Z,94779.87
2019-05-21T00:22:28.117Z,94785.82
2019-05-21T00:25:03.935Z,94698.11
2019-05-21T00:27:36.295Z,94778.66
2019-05-21T00:30:44.197Z,94785.91
2019-05-21T00:33:54.245Z,94793.53
2019-05-21T00:37:04.165Z,94789.50
2019-05-21T00:40:11.389Z,94781.41
2019-05-21T00:42:45.081Z,94779.69
2019-05-21T00:45:18.389Z,94776.48
2019-05-21T00:47:49.903Z,94773.27
2019-05-21T00:50:21.837Z,94770.22
2019-05-21T00:52:54.639Z,94774.92
2019-05-21T00:55:27.511Z,94777.80
2019-05-21T00:58:00.465Z,94771.67
2019-05-21T01:00:33.693Z,94774.25
2019-05-21T01:03:09.189Z,94781.14
2019-05-21T01:05:40.378Z,94781.28
2019-05-21T01:08:12.655Z,94791.27
2019-05-21T01:10:44.983Z,94802.50
2019-05-21T01:13:18.428Z,94807.97
2019-05-21T01:15:53.355Z,94812.47
2019-05-21T01:18:27.525Z,94818.28
2019-05-21T01:21:00.642Z,94815.71
2019-05-21T01:23:33.500Z,94817.45
2019-05-21T01:26:09.405Z,94815.05
2019-05-21T01:28:44.661Z,94822.09
2019-05-21T01:31:17.050Z,94822.75
2019-05-21T01:33:49.994Z,94818.46
2019-05-21T01:36:21.788Z,94805.78
2019-05-21T01:38:55.941Z,94810.13
2019-05-21T01:41:28.851Z,94807.26
2019-05-21T01:44:02.021Z,94807.07
2019-05-21T01:46:33.862Z,94814.92
2019-05-21T01:49:05.704Z,94821.83
2019-05-21T01:51:40.766Z,94817.04
2019-05-21T01:54:12.678Z,94815.42
2019-05-21T01:56:45.613Z,94810.28
2019-05-21T01:59:18.780Z,94814.92
2019-05-21T02:01:51.180Z,94812.52
2019-05-21T02:04:25.081Z,94813.81
2019-05-21T02:06:59.032Z,94816.36
2019-05-21T02:09:34.771Z,94816.35
2019-05-21T02:12:10.769Z,94823.94
2019-05-21T02:14:41.798Z,94817.66
2019-05-21T02:17:15.836Z,94818.94
2019-05-21T02:19:50.250Z,94805.13
2019-05-21T02:22:21.840Z,94809.31
2019-05-21T02:24:54.719Z,94812.20
2019-05-21T02:27:27.799Z,94817.81
2019-05-21T02:30:02.379Z,94813.80
2019-05-21T02:32:35.986Z,94810.60
2019-05-21T02:35:09.078Z,94812.70
2019-05-21T02:37:43.700Z,94814.12
2019-05-21T02:40:15.239Z,94817.03
2019-05-21T02:42:47.996Z,94813.97
2019-05-21T02:45:19.828Z,94823.44
2019-05-21T02:47:51.066Z,94817.03
2019-05-21T02:50:24.276Z,94817.20
2019-05-21T02:52:57.029Z,94816.86
2019-05-21T02:55:30.116Z,94815.11
2019-05-21T02:58:03.871Z,94817.33
2019-05-21T03:01:04.573Z,94815.42
2019-05-21T03:03:41.755Z,94812.98
2019-05-21T03:06:15.232Z,94818.45
2019-05-21T03:08:50.472Z,94823.27
2019-05-21T03:11:22.236Z,94819.24
2019-05-21T03:13:54.198Z,94818.94
2019-05-21T03:16:28.406Z,94820.84
2019-05-21T03:19:00.084Z,94823.76
2019-05-21T03:21:33.107Z,94821.52
2019-05-21T03:24:06.108Z,94815.86
2019-05-21T03:26:40.080Z,94808.17
2019-05-21T03:29:12.173Z,94813.13
2019-05-21T03:31:45.168Z,94808.97
2019-05-21T03:34:18.133Z,94815.39
2019-05-21T03:36:50.234Z,94809.30
2019-05-21T03:39:25.109Z,94806.72
2019-05-21T03:41:59.103Z,94802.54
2019-05-21T03:44:30.490Z,94805.11
2019-05-21T03:47:04.290Z,94803.02
2019-05-21T03:49:35.525Z,94809.58
2019-05-21T03:52:07.169Z,94807.50
2019-05-21T03:54:39.217Z,94816.00
2019-05-21T03:57:12.322Z,94821.13
2019-05-21T03:59:44.711Z,94821.30
2019-05-21T04:02:19.957Z,94832.33
2019-05-21T04:04:52.991Z,94826.74
2019-05-21T04:07:24.284Z,94828.20
2019-05-21T04:09:57.793Z,94829.83
2019-05-21T04:12:30.731Z,94825.64
2019-05-21T04:15:07.967Z,94827.75
2019-05-21T04:17:49.867Z,94824.05
2019-05-21T04:20:22.986Z,94832.91
2019-05-21T04:22:56.151Z,94838.53
2019-05-21T04:25:27.725Z,94841.73
2019-05-21T04:28:01.134Z,94835.97
2019-05-21T04:30:33.691Z,94840.30
2019-05-21T04:33:08.010Z,94841.91
2019-05-21T04:35:40.407Z,94840.14
2019-05-21T04:38:12.561Z,94838.87
2019-05-21T04:40:45.648Z,94842.41
2019-05-21T04:43:18.569Z,94845.28
2019-05-21T04:45:50.493Z,94845.92
2019-05-21T04:48:26.131Z,94843.23
2019-05-21T04:50:59.581Z,94844.02
2019-05-21T04:53:31.474Z,94850.09
2019-05-21T04:56:03.602Z,94848.98
2019-05-21T04:58:36.576Z,94854.27
2019-05-21T05:01:10.709Z,94856.22
2019-05-21T05:03:43.363Z,94854.77
2019-05-21T05:06:17.473Z,94852.82
2019-05-21T05:08:48.675Z,94852.02
2019-05-21T05:11:21.586Z,94853.14
2019-05-21T05:13:54.631Z,94856.83
2019-05-21T05:16:27.758Z,94861.67
2019-05-21T05:18:59.689Z,94864.41
2019-05-21T05:21:34.006Z,94864.57
2019-05-21T05:24:06.863Z,94871.16
2019-05-21T05:26:39.814Z,94862.63
2019-05-21T05:29:14.354Z,94863.27
2019-05-21T05:31:45.575Z,94862.30
2019-05-21T05:34:18.848Z,94856.97
2019-05-21T05:36:54.457Z,94869.68
2019-05-21T05:39:27.929Z,94875.78
2019-05-21T05:42:03.445Z,94869.19
2019-05-21T05:44:35.843Z,94879.66
2019-05-21T05:47:09.257Z,94877.85
2019-05-21T05:49:46.723Z,94876.76
2019-05-21T05:52:18.930Z,94882.33
2019-05-21T05:54:50.939Z,94879.11
2019-05-21T05:57:24.840Z,94886.02
2019-05-21T05:59:57.190Z,94890.06
2019-05-21T06:02:32.935Z,94890.38
2019-05-21T06:05:07.110Z,94889.23
2019-05-21T06:07:42.090Z,94893.28
2019-05-21T06:10:17.862Z,94897.95
2019-05-21T06:12:51.834Z,94900.67
2019-05-21T06:15:26.314Z,94906.12
2019-05-21T06:18:00.442Z,94912.13
2019-05-21T06:20:34.123Z,94919.34
2019-05-21T06:23:06.906Z,94921.09
2019-05-21T06:25:39.870Z,94923.19
2019-05-21T06:28:12.929Z,94924.17
2019-05-21T06:31:07.938Z,94923.66
2019-05-21T06:33:42.855Z,94922.71
2019-05-21T06:36:16.099Z,94918.88
2019-05-21T06:38:49.146Z,94907.92
2019-05-21T06:41:23.307Z,94921.28
2019-05-21T06:43:54.988Z,94918.52
2019-05-21T06:46:28.266Z,94921.72
2019-05-21T06:49:00.198Z,94928.77
2019-05-21T06:51:32.350Z,94923.94
2019-05-21T06:54:05.633Z,94929.41
2019-05-21T06:56:37.064Z,94928.78
2019-05-21T06:59:09.290Z,94926.84
2019-05-21T07:01:42.150Z,94933.25
2019-05-21T07:04:16.343Z,94932.80
2019-05-21T07:06:49.134Z,94936.52
2019-05-21T07:09:22.377Z,94941.50
2019-05-21T07:11:57.240Z,94943.89
2019-05-21T07:14:29.350Z,94941.95
2019-05-21T07:17:03.175Z,94949.67
2019-05-21T07:19:34.399Z,94955.62
2019-05-21T07:22:12.631Z,94954.98
2019-05-21T07:24:39.543Z,94958.18
2019-05-21T07:27:13.328Z,94963.30
2019-05-21T07:29:46.953Z,94960.89
2019-05-21T07:32:18.187Z,94963.81
2019-05-21T07:34:50.501Z,94965.28
2019-05-21T07:37:24.722Z,94969.31
2019-05-21T07:39:56.657Z,94966.90
2019-05-21T07:42:30.303Z,94970.89
2019-05-21T07:45:03.562Z,94968.00
2019-05-21T07:47:37.518Z,94967.67
2019-05-21T07:50:09.570Z,94972.83
2019-05-21T07:52:43.414Z,94970.93
2019-05-21T07:55:15.590Z,94982.16
2019-05-21T07:57:48.625Z,94974.62
2019-05-21T08:00:20.444Z,94977.83
2019-05-21T08:02:53.204Z,94973.33
2019-05-21T08:05:27.099Z,94971.37
2019-05-21T08:08:00.540Z,94974.28
2019-05-21T08:10:33.567Z,94968.61
2019-05-21T08:13:07.534Z,94972.11
2019-05-21T08:15:39.580Z,94969.56
2019-05-21T08:18:14.560Z,94972.11
2019-05-21T08:20:48.879Z,94969.84
2019-05-21T08:23:21.551Z,94972.07
2019-05-21T08:25:54.578Z,94982.88
2019-05-21T08:28:27.553Z,94972.45
2019-05-21T08:31:02.241Z,94974.00
2019-05-21T08:33:33.540Z,94982.84
2019-05-21T08:36:09.852Z,94981.52
2019-05-21T08:38:44.958Z,94979.45
2019-05-21T08:41:20.764Z,94981.42
2019-05-21T08:43:52.649Z,94984.64
2019-05-21T08:46:24.610Z,94985.25
2019-05-21T08:48:58.683Z,94984.09
2019-05-21T08:51:30.566Z,94989.11
2019-05-21T08:54:03.799Z,94980.60
2019-05-21T08:56:37.601Z,94989.58
2019-05-21T08:59:09.425Z,94990.34
2019-05-21T09:01:42.565Z,94994.33
2019-05-21T09:04:15.870Z,94987.64
2019-05-21T09:06:48.796Z,94989.77
2019-05-21T09:09:21.721Z,94987.42
2019-05-21T09:11:54.500Z,94981.56
2019-05-21T09:14:27.760Z,94986.27
2019-05-21T09:17:01.089Z,94975.61
2019-05-21T09:19:36.389Z,94995.23
2019-05-21T09:22:09.526Z,94986.97
2019-05-21T09:24:43.236Z,94987.94
2019-05-21T09:27:15.845Z,94988.36
2019-05-21T09:29:48.164Z,94987.75
2019-05-21T09:32:23.053Z,94995.20
2019-05-21T09:34:56.867Z,95012.62
2019-05-21T09:37:30.894Z,95004.94
2019-05-21T09:40:04.549Z,94994.83
2019-05-21T09:42:37.081Z,94999.51
2019-05-21T09:45:10.393Z,95002.25
2019-05-21T09:47:43.069Z,95011.27
2019-05-21T09:50:16.480Z,95013.50
2019-05-21T09:52:49.204Z,95014.38
2019-05-21T09:55:21.932Z,95016.36
2019-05-21T09:58:14.378Z,95024.75
2019-05-21T10:01:07.987Z,95024.91
2019-05-21T10:03:44.606Z,95049.52
2019-05-21T10:06:16.945Z,95027.19
2019-05-21T10:08:50.375Z,95034.14
2019-05-21T10:11:22.864Z,95039.47
2019-05-21T10:13:55.042Z,95043.63
2019-05-21T10:16:28.374Z,95052.01
2019-05-21T10:19:00.201Z,95046.69
2019-05-21T10:21:35.830Z,95049.26
2019-05-21T10:24:09.506Z,95053.49
2019-05-21T10:26:43.064Z,95060.24
2019-05-21T10:29:16.274Z,95056.69
2019-05-21T10:31:49.283Z,95056.04
2019-05-21T10:34:22.086Z,95056.34
2019-05-21T10:36:55.178Z,95068.03
2019-05-21T10:39:28.199Z,95068.20
2019-05-21T10:42:00.187Z,95071.42
2019-05-21T10:44:33.270Z,95071.72
2019-05-21T10:47:06.982Z,95082.64
2019-05-21T10:49:39.251Z,95078.98
2019-05-21T10:52:13.360Z,95080.53
2019-05-21T10:54:45.337Z,95087.27
2019-05-21T10:57:19.400Z,95086.11
2019-05-21T10:59:55.207Z,95091.55
2019-05-21T11:02:42.562Z,95105.81
2019-05-21T11:05:28.683Z,95110.24
2019-05-21T11:08:22.157Z,95097.72
2019-05-21T11:10:34.416Z,95100.89
2019-05-21T11:13:09.361Z,95105.02
2019-05-21T11:15:40.995Z,95104.01
2019-05-21T11:18:13.447Z,95108.92
2019-05-21T11:20:47.643Z,95118.59
2019-05-21T11:23:19.374Z,95114.76
2019-05-21T11:25:52.425Z,95122.66
2019-05-21T11:28:25.265Z,95112.99
2019-05-21T11:30:57.469Z,95122.35
2019-05-21T11:33:31.454Z,95120.95
2019-05-21T11:36:03.813Z,95122.87
2019-05-21T11:38:40.464Z,95126.25
2019-05-21T11:41:13.399Z,95123.19
2019-05-21T11:43:49.311Z,95117.53
2019-05-21T11:46:22.585Z,95116.25
2019-05-21T11:48:54.546Z,95123.95
2019-05-21T11:51:28.683Z,95124.14
2019-05-21T11:54:04.118Z,95126.73
2019-05-21T11:56:37.361Z,95131.88
2019-05-21T11:59:09.569Z,95130.89
2019-05-21T12:01:43.331Z,95139.88
2019-05-21T12:04:16.706Z,95144.05
2019-05-21T12:06:53.241Z,95149.73
2019-05-21T12:09:25.718Z,95147.50
2019-05-21T12:11:58.516Z,95157.02
2019-05-21T12:14:29.748Z,95156.00
2019-05-21T12:17:03.701Z,95170.48
2019-05-21T12:19:39.283Z,95173.39
2019-05-21T12:22:12.235Z,95172.25
2019-05-21T12:24:44.749Z,95168.73
2019-05-21T12:27:18.699Z,95169.05
2019-05-21T12:29:50.708Z,95174.52
2019-05-21T12:32:26.444Z,95182.08
2019-05-21T12:34:57.727Z,95177.58
2019-05-21T12:37:32.150Z,95181.28
2019-05-21T12:40:05.319Z,95179.69
2019-05-21T12:42:37.778Z,95185.80
2019-05-21T12:45:09.782Z,95182.89
2019-05-21T12:47:42.015Z,95189.98
2019-05-21T12:50:16.144Z,95181.27
2019-05-21T12:52:47.971Z,95198.02
2019-05-21T12:55:19.881Z,95186.13
2019-05-21T12:57:52.924Z,95194.51
2019-05-21T13:00:30.441Z,95194.34
2019-05-21T13:03:01.664Z,95202.19
2019-05-21T13:05:33.952Z,95207.04
2019-05-21T13:08:05.829Z,95201.11
2019-05-21T13:10:38.197Z,95209.00
2019-05-21T13:13:10.207Z,95210.44
2019-05-21T13:15:42.929Z,95205.62
2019-05-21T13:18:18.155Z,95204.47
2019-05-21T13:20:53.777Z,95208.36
2019-05-21T13:23:27.777Z,95209.31
2019-05-21T13:25:59.158Z,95218.31
2019-05-21T13:28:32.607Z,95209.80
2019-05-21T13:31:05.416Z,95202.55
2019-05-21T13:33:41.478Z,95213.15
2019-05-21T13:36:14.144Z,95218.80
2019-05-21T13:38:46.732Z,95213.33
2019-05-21T13:41:19.697Z,95225.39
2019-05-21T13:43:53.028Z,95220.88
2019-05-21T13:46:26.072Z,95229.56
2019-05-21T13:48:58.194Z,95224.56
2019-05-21T13:51:31.262Z,95239.22
2019-05-21T13:54:05.071Z,95234.38
2019-05-21T13:56:38.483Z,95237.92
2019-05-21T13:59:11.278Z,95237.11
2019-05-21T14:01:43.570Z,95245.03
2019-05-21T14:04:16.839Z,95243.74
2019-05-21T14:06:50.228Z,95249.17
2019-05-21T14:09:22.951Z,95242.08
2019-05-21T14:11:57.929Z,95239.84
2019-05-21T14:14:30.472Z,95249.98
2019-05-21T14:17:04.237Z,95242.70
2019-05-21T14:19:36.208Z,95245.82
2019-05-21T14:22:08.671Z,95254.48
2019-05-21T14:24:42.360Z,95242.88
2019-05-21T14:27:15.868Z,95248.78
2019-05-21T14:29:48.250Z,95244.30
2019-05-21T14:32:22.355Z,95253.59
2019-05-21T14:35:01.523Z,95253.74
2019-05-21T14:37:34.199Z,95247.47
2019-05-21T14:40:09.399Z,95249.88
2019-05-21T14:42:58.418Z,95265.43
2019-05-21T14:45:19.207Z,95270.48
2019-05-21T14:47:54.796Z,95259.76
2019-05-21T14:50:28.241Z,95259.76
2019-05-21T14:53:02.293Z,95262.30
2019-05-21T14:55:35.975Z,95270.48
2019-05-21T14:58:07.380Z,95273.19
2019-05-21T15:00:38.707Z,95273.12
2019-05-21T15:03:24.197Z,95271.57
2019-05-21T15:05:44.424Z,95276.03
2019-05-21T15:08:16.494Z,95280.05
2019-05-21T15:10:49.873Z,95278.95
2019-05-21T15:13:23.361Z,95272.14
2019-05-21T15:15:55.297Z,95279.55
2019-05-21T15:18:34.290Z,95279.55
2019-05-21T15:21:21.985Z,95281.15
2019-05-21T15:23:57.456Z,95277.70
2019-05-21T15:26:34.222Z,95284.59
2019-05-21T15:29:11.727Z,95284.91
2019-05-21T15:31:46.082Z,95279.95
2019-05-21T15:34:19.425Z,95275.91
2019-05-21T15:36:52.674Z,95278.36
2019-05-21T15:39:25.844Z,95279.17
2019-05-21T15:41:59.374Z,95277.86
2019-05-21T15:44:31.142Z,95275.82
2019-05-21T15:47:06.252Z,95281.05
2019-05-21T15:49:37.591Z,95277.77
2019-05-21T15:52:10.314Z,95276.81
2019-05-21T15:54:41.692Z,95285.32
2019-05-21T15:57:14.504Z,95293.72
2019-05-21T15:59:46.923Z,95290.05
2019-05-21T16:02:19.702Z,95273.25
2019-05-21T16:04:52.743Z,95279.17
2019-05-21T16:07:25.702Z,95283.16
2019-05-21T16:09:58.168Z,95275.06
2019-05-21T16:12:31.181Z,95283.94
2019-05-21T16:15:05.478Z,95285.94
2019-05-21T16:17:37.974Z,95292.83
2019-05-21T16:20:10.456Z,95293.41
2019-05-21T16:22:43.913Z,95292.44
2019-05-21T16:25:16.955Z,95286.61
2019-05-21T16:27:49.769Z,95293.69
2019-05-21T16:30:22.811Z,95297.27
2019-05-21T16:32:55.752Z,95294.97
2019-05-21T16:35:30.376Z,95297.34
2019-05-21T16:38:03.172Z,95297.54
2019-05-21T16:40:34.960Z,95301.41
2019-05-21T16:43:08.989Z,95295.05
2019-05-21T16:45:44.843Z,95301.83
2019-05-21T16:48:16.975Z,95302.33
2019-05-21T16:50:49.007Z,95302.33
2019-05-21T16:53:22.830Z,95301.05
2019-05-21T16:55:55.961Z,95302.95
2019-05-21T16:58:27.977Z,95313.58
2019-05-21T17:01:00.901Z,95315.17
2019-05-21T17:03:36.630Z,95303.97
2019-05-21T17:06:10.170Z,95307.07
2019-05-21T17:08:43.769Z,95309.42
2019-05-21T17:11:15.954Z,95307.81
2019-05-21T17:13:48.939Z,95305.09
2019-05-21T17:16:22.078Z,95306.30
2019-05-21T17:18:54.966Z,95304.36
2019-05-21T17:21:27.159Z,95302.80
2019-05-21T17:24:02.028Z,95300.11
2019-05-21T17:26:34.008Z,95304.75
2019-05-21T17:29:07.006Z,95307.47
2019-05-21T17:31:40.184Z,95307.55
2019-05-21T17:34:13.107Z,95311.02
2019-05-21T17:36:48.028Z,95307.94
2019-05-21T17:39:22.476Z,95319.77
2019-05-21T17:41:56.041Z,95322.96
2019-05-21T17:44:28.082Z,95325.92
2019-05-21T17:47:01.350Z,95316.08
2019-05-21T17:49:33.308Z,95324.64
2019-05-21T17:52:07.309Z,95324.33
2019-05-21T17:54:55.593Z,95333.70
2019-05-21T17:57:14.581Z,95339.20
2019-05-21T17:59:48.232Z,95341.78
2019-05-21T18:02:24.656Z,95334.15
2019-05-21T18:05:02.053Z,95331.95
2019-05-21T18:07:34.786Z,95336.87
2019-05-21T18:10:07.016Z,95342.75
2019-05-21T18:12:41.067Z,95341.66
2019-05-21T18:15:14.512Z,95328.30
2019-05-21T18:17:50.571Z,95331.97
2019-05-21T18:20:23.976Z,95327.09
2019-05-21T18:22:55.460Z,95335.84
2019-05-21T18:25:29.957Z,95331.73
2019-05-21T18:28:01.282Z,95334.15
2019-05-21T18:30:35.821Z,95334.53
2019-05-21T18:33:07.353Z,95341.77
2019-05-21T18:35:41.295Z,95339.59
2019-05-21T18:38:14.928Z,95345.08
2019-05-21T18:40:46.843Z,95335.59
2019-05-21T18:43:19.471Z,95340.87
2019-05-21T18:45:53.315Z,95336.41
2019-05-21T18:48:25.577Z,95342.67
2019-05-21T18:50:58.311Z,95346.55
2019-05-21T18:53:31.420Z,95349.47
2019-05-21T18:56:07.060Z,95358.10
2019-05-21T18:58:40.099Z,95368.73
2019-05-21T19:01:14.003Z,95366.31
2019-05-21T19:03:46.553Z,95377.88
2019-05-21T19:06:19.425Z,95372.53
2019-05-21T19:08:53.752Z,95387.03
2019-05-21T19:11:25.461Z,95376.28
2019-05-21T19:13:58.562Z,95391.40
2019-05-21T19:16:31.592Z,95386.11
2019-05-21T19:19:04.728Z,95393.45
2019-05-21T19:21:37.720Z,95393.23
2019-05-21T19:24:09.874Z,95399.34
2019-05-21T19:26:44.228Z,95396.13
2019-05-21T19:29:16.816Z,95395.48
2019-05-21T19:31:49.601Z,95408.33
2019-05-21T19:34:22.794Z,95396.58
2019-05-21T19:36:57.357Z,95409.81
2019-05-21T19:39:29.044Z,95407.31
2019-05-21T19:42:03.097Z,95411.69
2019-05-21T19:44:34.768Z,95406.18
2019-05-21T19:47:09.110Z,95417.20
2019-05-21T19:49:43.823Z,95414.95
2019-05-21T19:52:17.992Z,95414.64
2019-05-21T19:54:52.088Z,95415.57
2019-05-21T19:57:28.135Z,95414.02
2019-05-21T20:00:02.611Z,95417.74
2019-05-21T20:02:35.857Z,95422.51
2019-05-21T20:05:13.011Z,95424.77
2019-05-21T20:07:45.841Z,95427.08
2019-05-21T20:10:22.924Z,95420.41
2019-05-21T20:13:01.516Z,95420.05
2019-05-21T20:15:37.370Z,95414.41
2019-05-21T20:18:12.345Z,95416.44
2019-05-21T20:20:44.249Z,95418.27
2019-05-21T20:23:18.760Z,95425.06
2019-05-21T20:25:56.556Z,95424.47
2019-05-21T20:28:29.636Z,95413.13
2019-05-21T20:31:02.033Z,95417.52
2019-05-21T20:33:35.136Z,95417.58
2019-05-21T20:36:09.075Z,95424.16
2019-05-21T20:38:43.353Z,95423.01
2019-05-21T20:41:20.466Z,95419.16
2019-05-21T20:43:59.058Z,95423.64
2019-05-21T20:46:29.847Z,95423.55
2019-05-21T20:49:02.209Z,95416.34
2019-05-21T20:51:36.046Z,95413.50
2019-05-21T20:54:10.456Z,95418.05
2019-05-21T20:56:42.501Z,95418.41
2019-05-21T20:59:13.873Z,95432.02
2019-05-21T21:01:47.863Z,95418.70
2019-05-21T21:04:20.371Z,95421.58
2019-05-21T21:06:52.162Z,95422.09
2019-05-21T21:09:25.960Z,95416.61
2019-05-21T21:12:00.294Z,95418.95
2019-05-21T21:14:33.677Z,95430.05
2019-05-21T21:17:07.128Z,95429.30
2019-05-21T21:19:39.919Z,95426.36
2019-05-21T21:22:12.045Z,95433.41
2019-05-21T21:24:43.975Z,95439.36
2019-05-21T21:27:17.233Z,95434.98
2019-05-21T21:29:51.177Z,95448.56
2019-05-21T21:32:23.262Z,95451.68
2019-05-21T21:34:58.861Z,95443.04
2019-05-21T21:38:00.617Z,95438.38
2019-05-21T21:40:32.372Z,95445.02
2019-05-21T21:43:08.040Z,95446.02
2019-05-21T21:45:42.083Z,95440.27
2019-05-21T21:48:16.240Z,95442.70
2019-05-21T21:50:49.071Z,95437.77
2019-05-21T21:53:20.758Z,95437.01
2019-05-21T21:55:54.350Z,95436.51
2019-05-21T21:58:28.464Z,95441.23
2019-05-21T22:01:28.351Z,95445.25
2019-05-21T22:04:04.573Z,95444.34
2019-05-21T22:06:41.634Z,95450.97
2019-05-21T22:09:19.082Z,95451.81
2019-05-21T22:11:55.495Z,95450.05
2019-05-21T22:14:29.842Z,95446.89
2019-05-21T22:17:02.141Z,95447.00
2019-05-21T22:19:33.629Z,95444.49
2019-05-21T22:22:07.602Z,95446.55
2019-05-21T22:24:41.970Z,95436.09
2019-05-21T22:27:13.761Z,95434.73
2019-05-21T22:29:45.603Z,95436.39
2019-05-21T22:32:19.579Z,95433.77
2019-05-21T22:34:51.477Z,95433.70
2019-05-21T22:37:27.040Z,95433.41
2019-05-21T22:40:01.341Z,95432.98
2019-05-21T22:42:35.256Z,95439.70
2019-05-21T22:45:10.288Z,95430.76
2019-05-21T22:47:43.588Z,95436.25
2019-05-21T22:50:17.053Z,95432.56
2019-05-21T22:52:49.605Z,95435.19
2019-05-21T22:55:22.967Z,95428.27
2019-05-21T22:57:57.182Z,95426.36
2019-05-21T23:00:28.716Z,95424.47
2019-05-21T23:03:04.242Z,95425.30
2019-05-21T23:05:37.535Z,95422.34
2019-05-21T23:08:10.941Z,95414.39
2019-05-21T23:10:43.921Z,95406.95
2019-05-21T23:13:16.680Z,95411.98
2019-05-21T23:15:50.955Z,95414.91
2019-05-21T23:18:22.754Z,95421.80
2019-05-21T23:20:59.128Z,95424.41
2019-05-21T23:23:33.654Z,95422.73
2019-05-21T23:26:10.209Z,95427.95
2019-05-21T23:28:46.168Z,95430.46
2019-05-21T23:31:21.870Z,95432.94
2019-05-21T23:33:58.742Z,95433.70
2019-05-21T23:36:32.793Z,95439.03
2019-05-21T23:39:09.221Z,95434.37
2019-05-21T23:41:42.061Z,95440.48
2019-05-21T23:44:14.569Z,95439.62
2019-05-21T23:46:48.907Z,95439.27
2019-05-21T23:49:24.440Z,95432.22
2019-05-21T23:51:56.801Z,95432.17
2019-05-21T23:54:29.745Z,95423.92
2019-05-21T23:57:03.020Z,95428.84
2019-05-21T23:59:37.372Z,95423.89
